Time;durP1;ratioP1;P1;durP2;ratioP2;P2;SDS_P1;SDS_P2;PMS_P1;PMS_P2;Temp;Humidity;BMP_temperature;BMP_pressure;BME280_temperature;BME280_humidity;BME280_pressure;Samples;Min_cycle;Max_cycle;Signal;HPM_P1;HPM_P2
2022/11/06 00:02:05;;;;;;;11.45;4.25;;;;;;;12.29;75.17;101122.13;4996591;28;20050;-66
2022/11/06 00:04:33;;;;;;;16.35;4.82;;;;;;;12.08;75.64;101118.25;5002660;28;20509;-66
2022/11/06 00:07:00;;;;;;;12.95;4.60;;;;;;;11.94;76.13;101107.25;4996518;28;20049;-66
2022/11/06 00:09:27;;;;;;;11.25;4.40;;;;;;;12.07;76.24;101100.84;4983844;28;20054;-66
2022/11/06 00:11:55;;;;;;;13.15;4.68;;;;;;;12.07;76.09;101097.28;4991069;28;20055;-66
2022/11/06 00:14:22;;;;;;;12.63;4.40;;;;;;;11.85;76.69;101092.59;4981412;28;20039;-65
2022/11/06 00:16:50;;;;;;;15.65;4.47;;;;;;;11.79;77.58;101110.38;4984362;28;20046;-67
2022/11/06 00:19:17;;;;;;;11.90;4.40;;;;;;;11.87;77.37;101119.88;4968494;28;20050;-66
2022/11/06 00:21:45;;;;;;;12.55;4.32;;;;;;;11.97;77.06;101130.66;4983705;28;20493;-66
2022/11/06 00:24:14;;;;;;;14.00;4.53;;;;;;;11.88;77.15;101132.53;4992811;28;20142;-66
2022/11/06 00:26:41;;;;;;;12.75;4.13;;;;;;;11.78;77.53;101125.31;4970699;28;20057;-67
2022/11/06 00:29:12;;;;;;;18.50;6.57;;;;;;;11.99;77.14;101120.13;4998204;28;20046;-67
2022/11/06 00:31:40;;;;;;;17.80;6.32;;;;;;;12.15;76.23;101135.19;4990683;28;20054;-67
2022/11/06 00:34:08;;;;;;;14.75;5.93;;;;;;;12.14;76.28;101128.03;4988199;28;20049;-66
2022/11/06 00:36:35;;;;;;;11.98;4.78;;;;;;;12.10;76.09;101121.53;4999559;28;20046;-65
2022/11/06 00:39:03;;;;;;;9.93;3.90;;;;;;;12.10;76.31;101116.78;5009034;28;20054;-66
2022/11/06 00:41:31;;;;;;;16.70;5.63;;;;;;;12.24;75.94;101113.97;4989222;28;20389;-66
2022/11/06 00:44:00;;;;;;;13.00;4.80;;;;;;;12.01;76.36;101121.44;4976262;28;20054;-66
2022/11/06 00:46:27;;;;;;;21.95;7.40;;;;;;;12.15;75.91;101118.63;4974172;28;20529;-66
2022/11/06 00:48:55;;;;;;;14.02;4.13;;;;;;;12.01;75.91;101115.09;4995568;28;20042;-66
2022/11/06 00:51:26;;;;;;;14.88;6.28;;;;;;;11.95;76.76;101108.06;5007189;28;20473;-66
2022/11/06 00:53:56;;;;;;;17.00;5.07;;;;;;;11.94;76.86;101109.22;5005383;28;20077;-66
2022/11/06 00:56:24;;;;;;;17.88;4.93;;;;;;;11.96;76.67;101102.22;4999624;28;20052;-65
2022/11/06 00:58:51;;;;;;;13.55;4.80;;;;;;;11.92;77.11;101092.97;4993126;28;20053;-66
2022/11/06 01:01:21;;;;;;;15.82;6.28;;;;;;;11.91;77.01;101084.97;4983738;28;20054;-66
2022/11/06 01:04:00;;;;;;;10.00;4.50;;;;;;;12.11;76.40;101090.00;4973451;28;20057;-66
2022/11/06 01:06:30;;;;;;;14.38;5.20;;;;;;;12.02;76.44;101097.41;4997860;28;20046;-66
2022/11/06 01:08:58;;;;;;;16.73;5.68;;;;;;;11.92;76.78;101089.38;4985255;28;20047;-66
2022/11/06 01:11:31;;;;;;;28.27;16.00;;;;;;;12.10;76.46;101091.16;4980016;28;20042;-66
2022/11/06 01:14:20;;;;;;;15.75;7.22;;;;;;;12.12;76.49;101075.88;5003774;28;20050;-66
2022/11/06 01:16:47;;;;;;;16.38;5.15;;;;;;;12.32;75.81;101060.72;5010054;28;20050;-66
2022/11/06 01:19:16;;;;;;;13.57;4.20;;;;;;;12.07;76.11;101059.44;5004341;28;20054;-66
2022/11/06 01:21:45;;;;;;;13.85;4.38;;;;;;;12.07;76.30;101064.97;4985765;28;20580;-66
2022/11/06 01:24:17;;;;;;;17.00;4.38;;;;;;;12.09;76.64;101064.66;5000069;28;20792;-66
2022/11/06 01:26:45;;;;;;;17.33;4.05;;;;;;;12.06;76.28;101066.09;5000138;28;20046;-66
2022/11/06 01:29:33;;;;;;;9.55;3.58;;;;;;;12.17;75.90;101070.22;4998877;28;20397;-66
2022/11/06 01:32:00;;;;;;;15.75;4.18;;;;;;;12.19;75.90;101069.91;5001736;28;20048;-67
2022/11/06 01:34:27;;;;;;;13.50;3.85;;;;;;;12.37;75.84;101071.66;5002818;28;20058;-66
2022/11/06 01:36:55;;;;;;;14.57;4.07;;;;;;;12.33;75.28;101068.69;5010401;28;20054;-66
2022/11/06 01:39:22;;;;;;;13.43;4.25;;;;;;;12.32;75.33;101069.84;5000306;28;20050;-66
2022/11/06 01:41:51;;;;;;;13.70;4.18;;;;;;;12.12;75.89;101061.25;5006398;28;20068;-65
2022/11/06 01:44:34;;;;;;;10.10;3.53;;;;;;;12.03;76.38;101063.94;4999630;28;20057;-66
2022/11/06 01:47:04;;;;;;;12.00;3.80;;;;;;;12.03;76.24;101060.41;4992584;28;20306;-66
2022/11/06 01:49:32;;;;;;;;;;;;;;;12.03;76.25;101066.72;4987251;28;20050;-65
2022/11/06 01:52:04;;;;;;;11.13;3.72;;;;;;;11.98;76.39;101058.56;5010108;28;19921;-66
2022/11/06 01:54:33;;;;;;;13.73;3.83;;;;;;;12.01;76.48;101055.16;4993731;28;20066;-66
2022/11/06 01:57:02;;;;;;;9.75;3.65;;;;;;;12.19;76.12;101056.91;4996285;28;20055;-67
2022/11/06 01:59:31;;;;;;;14.23;4.00;;;;;;;12.25;75.86;101052.91;4980809;28;20038;-65
2022/11/06 02:01:59;;;;;;;8.32;3.35;;;;;;;12.27;75.99;101038.78;4961608;28;20418;-66
2022/11/06 02:04:30;;;;;;;9.77;3.22;;;;;;;12.22;75.40;101030.63;4998921;28;20038;-66
2022/11/06 02:06:59;;;;;;;12.35;3.25;;;;;;;12.05;75.78;101025.81;4955638;28;20046;-67
2022/11/06 02:09:29;;;;;;;11.00;4.00;;;;;;;12.05;76.20;101019.47;4963767;28;20207;-67
2022/11/06 02:12:21;;;;;;;10.57;3.70;;;;;;;12.08;76.14;101024.38;4985477;28;20655;-66
2022/11/06 02:15:03;;;;;;;11.27;3.80;;;;;;;12.13;75.87;101022.28;4994806;28;20038;-66
2022/11/06 02:17:58;;;;;;;12.25;3.63;;;;;;;12.20;75.60;101011.59;5008495;28;20061;-66
2022/11/06 02:20:40;;;;;;;11.50;3.45;;;;;;;12.20;75.54;100996.97;4994684;28;20057;-66
2022/11/06 02:23:32;;;;;;;18.98;3.53;;;;;;;12.05;75.92;100978.03;5000675;28;20049;-67
2022/11/06 02:26:12;;;;;;;14.45;3.38;;;;;;;11.95;76.19;100970.88;5010301;28;20512;-67
2022/11/06 02:28:46;;;;;;;12.93;3.90;;;;;;;12.17;75.98;100962.53;5011167;28;20035;-67
2022/11/06 02:31:19;;;;;;;11.32;3.72;;;;;;;12.05;75.14;100962.31;4975581;28;20047;-67
2022/11/06 02:33:51;;;;;;;14.15;3.72;;;;;;;11.93;76.25;100973.13;4991522;28;20050;-67
2022/11/06 02:36:24;;;;;;;10.93;3.65;;;;;;;11.98;76.02;100975.75;4978842;28;20070;-67
2022/11/06 02:38:58;;;;;;;12.65;3.70;;;;;;;11.90;76.07;100986.75;4989900;28;20058;-66
2022/11/06 02:41:30;;;;;;;9.60;3.20;;;;;;;11.90;76.74;100978.47;5005391;28;20061;-66
2022/11/06 02:43:58;;;;;;;15.63;3.63;;;;;;;11.89;76.29;100969.34;5005495;28;20157;-66
2022/11/06 02:46:38;;;;;;;15.88;4.05;;;;;;;11.78;76.59;100983.75;4984005;28;20536;-66
2022/11/06 02:49:12;;;;;;;13.48;3.28;;;;;;;11.67;76.86;100983.19;4993762;28;20393;-66
2022/11/06 02:51:45;;;;;;;11.90;2.90;;;;;;;11.64;77.17;100981.06;4994511;28;20054;-73
2022/11/06 02:54:13;;;;;;;10.00;3.42;;;;;;;11.73;77.31;100972.84;5007509;28;20526;-73
2022/11/06 02:56:43;;;;;;;11.85;3.35;;;;;;;11.74;76.94;100979.97;4988367;28;20046;-69
2022/11/06 02:59:14;;;;;;;13.25;3.75;;;;;;;11.81;76.80;100985.88;4962316;28;20058;-72
2022/11/06 03:02:02;;;;;;;9.07;2.80;;;;;;;11.90;76.49;100976.53;4991873;28;20409;-71
2022/11/06 03:04:33;;;;;;;10.98;3.70;;;;;;;11.95;75.91;100976.38;4989699;28;20065;-71
2022/11/06 03:07:08;;;;;;;13.48;3.67;;;;;;;11.99;75.86;100960.81;5009786;28;20049;-70
2022/11/06 03:09:35;;;;;;;13.63;3.45;;;;;;;11.98;75.98;100961.13;4991283;28;20054;-71
2022/11/06 03:12:24;;;;;;;12.02;3.83;;;;;;;11.81;75.73;100961.84;4991267;28;20038;-71
2022/11/06 03:15:13;;;;;;;13.75;3.88;;;;;;;11.83;76.68;100956.00;5010120;28;20061;-70
2022/11/06 03:17:49;;;;;;;9.50;3.05;;;;;;;11.83;76.25;100934.75;4988562;28;20050;-70
2022/11/06 03:20:20;;;;;;;10.60;2.95;;;;;;;11.98;75.66;100920.53;5002221;28;20509;-71
2022/11/06 03:23:01;;;;;;;16.48;4.00;;;;;;;11.99;75.30;100926.88;4989698;28;20539;-70
2022/11/06 03:25:35;;;;;;;11.65;3.67;;;;;;;12.16;74.97;100938.00;4993016;28;20061;-70
2022/11/06 03:28:09;;;;;;;16.50;3.35;;;;;;;11.88;75.72;100937.38;4985170;28;20045;-70
2022/11/06 03:30:47;;;;;;;13.23;3.40;;;;;;;11.67;76.61;100929.94;4997591;28;20049;-72
2022/11/06 03:33:18;;;;;;;11.35;3.33;;;;;;;11.56;77.09;100925.78;4994317;28;20061;-70
2022/11/06 03:35:57;;;;;;;9.90;3.33;;;;;;;11.50;77.33;100924.28;4978949;28;20080;-72
2022/11/06 03:38:31;;;;;;;9.75;3.17;;;;;;;11.47;77.21;100913.88;4983735;28;20072;-70
2022/11/06 03:41:10;;;;;;;14.45;3.13;;;;;;;11.53;77.08;100916.19;4987473;28;20398;-71
2022/11/06 03:43:41;;;;;;;12.57;3.22;;;;;;;11.65;76.88;100921.16;5005861;28;20117;-71
2022/11/06 03:46:12;;;;;;;11.70;3.47;;;;;;;11.60;77.07;100924.84;4970601;28;20049;-72
2022/11/06 03:48:43;;;;;;;11.43;3.30;;;;;;;11.66;76.86;100931.06;4984828;28;20054;-70
2022/11/06 03:51:20;;;;;;;12.63;3.80;;;;;;;11.68;76.84;100937.09;4971818;28;20054;-70
2022/11/06 03:54:14;;;;;;;13.60;3.30;;;;;;;11.74;76.22;100922.84;4965694;28;20054;-70
2022/11/06 03:56:54;;;;;;;14.23;3.33;;;;;;;11.81;76.57;100903.06;4989076;28;20141;-71
2022/11/06 03:59:24;;;;;;;19.98;3.63;;;;;;;11.92;75.70;100902.50;4989356;28;20042;-71
2022/11/06 04:01:52;;;;;;;11.68;3.35;;;;;;;11.72;75.72;100896.69;4973834;28;20054;-71
2022/11/06 04:04:34;;;;;;;10.07;3.50;;;;;;;11.58;76.17;100882.13;4990463;28;20524;-70
2022/11/06 04:07:08;;;;;;;12.32;3.72;;;;;;;11.56;76.94;100887.97;4959273;28;20054;-71
2022/11/06 04:15:15;;;;;;;12.95;3.80;;;;;;;11.44;77.23;100884.97;4978558;28;20054;-71
2022/11/06 04:17:43;;;;;;;12.45;3.40;;;;;;;11.43;77.47;100869.56;4992651;28;20054;-70
2022/11/06 04:21:20;;;;;;;14.75;3.75;;;;;;;11.56;77.06;100871.41;4972683;28;20065;-72
2022/11/06 04:23:15;;;;;;;17.15;4.32;;;;;;;11.37;77.38;100879.09;4957645;28;20387;-71
2022/11/06 04:26:38;;;;;;;10.02;2.92;;;;;;;11.18;78.27;100889.50;4970930;28;20045;-70
2022/11/06 04:29:31;;;;;;;9.05;2.92;;;;;;;11.18;78.57;100873.78;4993339;28;20050;-71
2022/11/06 04:32:27;;;;;;;9.88;3.40;;;;;;;11.23;78.11;100878.34;4980709;28;20077;-72
2022/11/06 04:35:13;;;;;;;16.70;3.45;;;;;;;11.18;78.30;100881.22;4990742;28;20046;-71
2022/11/06 04:37:47;;;;;;;14.23;3.55;;;;;;;11.16;78.41;100883.47;4981006;28;20065;-71
2022/11/06 04:40:24;;;;;;;13.70;4.05;;;;;;;11.32;77.97;100879.22;4990442;28;20061;-71
2022/11/06 04:42:51;;;;;;;11.20;2.92;;;;;;;11.25;77.92;100887.13;4992467;28;20046;-72
2022/11/06 04:45:37;;;;;;;11.90;3.45;;;;;;;11.48;77.47;100874.13;4987654;28;20042;-70
2022/11/06 04:48:07;;;;;;;10.55;3.05;;;;;;;11.45;77.18;100880.28;4990008;28;20046;-70
2022/11/06 04:50:46;;;;;;;11.48;3.35;;;;;;;11.58;76.64;100880.19;4971065;28;20065;-71
2022/11/06 04:53:15;;;;;;;12.48;3.90;;;;;;;11.38;76.95;100876.00;4979941;28;20063;-69
2022/11/06 04:55:52;;;;;;;11.63;3.30;;;;;;;11.49;76.99;100860.00;5015106;28;20401;-71
2022/11/06 04:58:19;;;;;;;10.98;3.33;;;;;;;11.40;76.84;100867.44;4997678;28;20064;-70
2022/11/06 05:00:48;;;;;;;8.27;2.90;;;;;;;11.65;76.52;100864.03;5015729;28;20042;-71
2022/11/06 05:03:16;;;;;;;15.27;3.95;;;;;;;11.62;76.18;100855.53;5015697;28;20482;-72
2022/11/06 05:05:44;;;;;;;10.38;3.15;;;;;;;11.62;76.03;100858.31;5001821;28;20060;-72
2022/11/06 05:08:14;;;;;;;10.93;2.88;;;;;;;11.58;75.65;100849.03;5015367;28;20057;-71
2022/11/06 05:10:43;;;;;;;10.40;2.97;;;;;;;11.43;76.17;100857.72;4999025;28;20042;-71
2022/11/06 05:13:10;;;;;;;16.25;4.07;;;;;;;11.25;77.08;100846.56;5011596;28;20049;-71
2022/11/06 05:15:38;;;;;;;15.10;3.42;;;;;;;11.05;78.15;100858.09;5014890;28;20053;-71
2022/11/06 05:18:06;;;;;;;9.70;2.83;;;;;;;11.15;77.57;100848.78;4998148;28;20081;-70
2022/11/06 05:20:33;;;;;;;14.75;3.80;;;;;;;11.01;78.26;100856.28;4993987;28;20047;-72
2022/11/06 05:23:00;;;;;;;11.27;3.78;;;;;;;11.13;78.01;100846.34;5013513;28;20057;-71
2022/11/06 05:25:31;;;;;;;9.30;2.88;;;;;;;11.15;77.98;100835.00;5014241;28;20049;-70
2022/11/06 05:27:59;;;;;;;14.95;3.22;;;;;;;11.25;77.49;100840.25;5010091;28;20433;-71
2022/11/06 05:30:26;;;;;;;18.65;3.30;;;;;;;11.44;76.92;100834.53;5014380;28;20042;-72
2022/11/06 05:32:54;;;;;;;11.95;3.00;;;;;;;11.13;77.06;100815.19;4999282;28;20050;-71
2022/11/06 05:35:21;;;;;;;8.35;2.80;;;;;;;11.04;77.69;100812.38;4997431;28;20054;-71
2022/11/06 05:37:48;;;;;;;9.60;3.13;;;;;;;11.07;77.51;100817.25;5009991;28;20050;-71
2022/11/06 05:40:16;;;;;;;13.43;3.60;;;;;;;11.30;77.28;100810.59;5015149;28;20054;-71
2022/11/06 05:42:43;;;;;;;13.27;3.60;;;;;;;11.21;76.69;100812.47;5015265;28;20045;-71
2022/11/06 05:45:11;;;;;;;13.50;2.80;;;;;;;11.30;76.67;100802.31;5005861;28;20516;-71
2022/11/06 05:47:40;;;;;;;13.63;2.85;;;;;;;11.30;76.50;100799.56;5014300;28;20045;-71
2022/11/06 05:50:08;;;;;;;13.23;3.20;;;;;;;11.45;75.81;100803.88;5014968;28;20041;-70
2022/11/06 05:52:36;;;;;;;13.32;3.53;;;;;;;11.08;76.63;100812.56;4982650;28;20050;-71
2022/11/06 05:55:05;;;;;;;9.57;3.35;;;;;;;11.23;77.01;100824.00;4992595;28;20047;-71
2022/11/06 05:57:39;;;;;;;15.00;3.42;;;;;;;11.04;77.19;100817.91;5001487;28;20077;-71
2022/11/06 06:00:07;;;;;;;9.38;3.00;;;;;;;11.07;77.43;100805.44;4982701;28;20053;-71
2022/11/06 06:02:38;;;;;;;12.00;2.95;;;;;;;11.14;77.38;100812.13;4997063;28;20051;-71
2022/11/06 06:05:06;;;;;;;12.93;2.95;;;;;;;11.35;76.59;100813.22;4990174;28;20057;-70
2022/11/06 06:07:34;;;;;;;10.70;3.40;;;;;;;11.46;76.03;100810.19;5000349;28;20061;-71
2022/11/06 06:10:02;;;;;;;17.50;3.22;;;;;;;11.37;75.69;100807.38;5006128;28;20034;-72
2022/11/06 06:12:29;;;;;;;9.90;3.50;;;;;;;11.53;75.47;100802.25;5004252;28;20053;-70
2022/11/06 06:14:56;;;;;;;11.98;3.50;;;;;;;11.31;75.35;100800.38;4998922;28;20055;-71
2022/11/06 06:17:24;;;;;;;9.48;3.15;;;;;;;11.51;75.05;100799.00;4995924;28;20042;-71
2022/11/06 06:19:51;;;;;;;14.60;3.42;;;;;;;11.44;75.64;100784.88;5000356;28;20045;-71
2022/11/06 06:22:18;;;;;;;9.32;3.40;;;;;;;11.34;75.96;100786.78;5009120;28;20054;-71
2022/11/06 06:24:45;;;;;;;13.77;3.65;;;;;;;11.34;76.01;100788.72;4998313;28;20053;-72
2022/11/06 06:27:13;;;;;;;8.55;3.15;;;;;;;11.35;76.00;100787.56;4966017;28;20069;-71
2022/11/06 06:29:40;;;;;;;13.50;4.13;;;;;;;11.21;76.03;100775.81;4962593;28;20042;-70
2022/11/06 06:32:08;;;;;;;9.85;3.90;;;;;;;11.30;76.36;100766.47;5002202;28;20432;-71
2022/11/06 06:34:35;;;;;;;11.27;3.58;;;;;;;11.39;75.50;100758.25;4997267;28;20042;-70
2022/11/06 06:37:02;;;;;;;13.38;3.25;;;;;;;11.56;74.96;100749.25;5009187;28;20056;-70
2022/11/06 06:39:29;;;;;;;13.63;3.33;;;;;;;11.42;74.50;100756.81;4977890;28;20160;-70
2022/11/06 06:41:57;;;;;;;14.52;3.70;;;;;;;11.08;75.95;100750.00;4976746;28;20413;-70
2022/11/06 06:44:24;;;;;;;17.00;4.05;;;;;;;11.05;76.25;100741.53;4995604;28;20050;-70
2022/11/06 06:46:52;;;;;;;12.68;3.50;;;;;;;11.24;75.99;100740.16;4990019;28;20042;-70
2022/11/06 06:49:19;;;;;;;12.10;3.88;;;;;;;11.31;75.55;100743.28;4975872;28;20433;-70
2022/11/06 06:51:47;;;;;;;14.45;3.53;;;;;;;11.21;75.48;100740.81;5008576;28;20401;-70
2022/11/06 06:54:15;;;;;;;10.57;3.30;;;;;;;11.37;75.54;100732.13;4998609;28;20490;-71
2022/11/06 06:56:42;;;;;;;12.88;3.67;;;;;;;11.25;75.09;100728.00;4988177;28;20077;-71
2022/11/06 06:59:10;;;;;;;12.45;3.50;;;;;;;11.08;75.87;100716.91;4982858;28;20057;-71
2022/11/06 07:01:37;;;;;;;10.73;3.70;;;;;;;10.92;76.65;100715.69;4996201;28;20038;-71
2022/11/06 07:04:05;;;;;;;10.38;3.40;;;;;;;10.98;76.66;100719.13;4958394;28;20046;-71
2022/11/06 07:06:33;;;;;;;12.50;3.55;;;;;;;10.92;76.99;100714.84;4987275;28;20061;-72
2022/11/06 07:09:01;;;;;;;8.18;3.22;;;;;;;10.85;76.71;100715.31;4985349;28;20055;-71
2022/11/06 07:11:28;;;;;;;12.20;3.60;;;;;;;10.86;76.74;100725.19;4991305;28;20046;-72
2022/11/06 07:13:56;;;;;;;10.88;3.35;;;;;;;11.02;76.59;100729.19;4987233;28;20065;-71
2022/11/06 07:16:26;;;;;;;11.30;3.80;;;;;;;11.05;76.43;100728.53;4991818;28;20073;-72
2022/11/06 07:18:53;;;;;;;10.90;3.30;;;;;;;11.01;76.27;100719.31;4987098;28;20050;-72
2022/11/06 07:21:21;;;;;;;11.43;3.33;;;;;;;11.02;76.06;100712.66;4987728;28;20042;-71
2022/11/06 07:23:48;;;;;;;11.45;3.75;;;;;;;10.98;76.42;100714.41;4988983;28;20046;-72
2022/11/06 07:26:15;;;;;;;10.80;4.18;;;;;;;11.07;76.32;100720.78;4992661;28;20050;-71
2022/11/06 07:28:43;;;;;;;13.43;3.50;;;;;;;10.91;76.86;100725.06;4992922;28;20065;-72
2022/11/06 07:31:13;;;;;;;11.00;3.55;;;;;;;11.03;76.07;100717.06;4991096;28;20050;-73
2022/11/06 07:33:41;;;;;;;11.75;4.15;;;;;;;11.09;76.02;100703.91;4994670;28;20046;-71
2022/11/06 07:36:10;;;;;;;11.20;3.53;;;;;;;11.17;75.71;100700.41;4990465;28;20399;-71
2022/11/06 07:38:39;;;;;;;12.35;3.80;;;;;;;10.99;75.77;100699.50;4985506;28;20054;-72
2022/11/06 07:41:12;;;;;;;13.98;3.50;;;;;;;10.92;75.83;100690.06;4992156;28;20042;-72
2022/11/06 07:43:40;;;;;;;17.27;4.30;;;;;;;10.92;76.42;100692.81;4974352;28;20058;-70
2022/11/06 07:46:10;;;;;;;15.98;3.78;;;;;;;10.90;76.41;100697.81;4973696;28;20081;-70
2022/11/06 07:48:38;;;;;;;14.57;3.20;;;;;;;10.81;76.64;100703.28;4986166;28;20057;-69
2022/11/06 07:51:08;;;;;;;11.55;3.28;;;;;;;10.97;76.27;100706.44;4987161;28;20053;-70
2022/11/06 07:53:35;;;;;;;9.25;2.97;;;;;;;11.08;75.60;100708.66;4971627;28;20050;-70
2022/11/06 07:56:03;;;;;;;7.47;3.45;;;;;;;11.11;75.21;100708.00;4981681;28;20049;-69
2022/11/06 07:58:32;;;;;;;12.38;3.13;;;;;;;11.12;75.18;100704.09;4998585;28;20050;-71
2022/11/06 08:00:59;;;;;;;12.52;3.60;;;;;;;11.13;74.66;100707.69;4990266;28;20054;-69
2022/11/06 08:03:28;;;;;;;10.90;3.78;;;;;;;11.16;75.15;100691.31;4998008;28;20042;-71
2022/11/06 08:05:57;;;;;;;11.60;2.90;;;;;;;11.06;75.28;100696.28;4983172;28;20522;-71
2022/11/06 08:08:26;;;;;;;12.23;3.95;;;;;;;10.93;76.01;100700.75;4959593;28;20061;-71
2022/11/06 08:10:53;;;;;;;12.68;3.40;;;;;;;10.91;75.87;100694.75;4985605;28;20054;-70
2022/11/06 08:13:21;;;;;;;13.45;3.42;;;;;;;11.10;75.67;100700.06;4977998;28;20528;-71
2022/11/06 08:15:48;;;;;;;13.95;3.40;;;;;;;11.22;74.99;100689.22;4996361;28;20060;-72
2022/11/06 08:18:17;;;;;;;11.73;3.78;;;;;;;11.30;74.55;100677.41;5006856;28;20413;-70
2022/11/06 08:20:44;;;;;;;12.05;2.75;;;;;;;11.34;74.27;100678.41;4989064;28;20050;-71
2022/11/06 08:23:12;;;;;;;10.88;3.50;;;;;;;11.23;74.79;100675.13;4997407;28;20054;-70
2022/11/06 08:25:39;;;;;;;12.48;2.95;;;;;;;11.37;74.75;100671.47;4953508;28;20073;-69
2022/11/06 08:28:08;;;;;;;10.68;2.97;;;;;;;11.27;74.80;100665.09;5010016;28;20042;-70
2022/11/06 08:30:35;;;;;;;11.30;2.80;;;;;;;11.21;75.87;100663.59;4985160;28;20054;-70
2022/11/06 08:33:06;;;;;;;14.68;3.08;;;;;;;11.34;76.08;100661.88;5014898;28;20643;-70
2022/11/06 08:35:34;;;;;;;14.52;3.90;;;;;;;11.46;75.51;100658.47;5003753;28;20497;-70
2022/11/06 08:38:04;;;;;;;13.10;3.55;;;;;;;11.31;76.39;100659.75;4991439;28;20775;-72
2022/11/06 08:40:31;;;;;;;9.70;3.10;;;;;;;11.28;77.36;100660.38;5002610;28;21790;-70
2022/11/06 08:43:00;;;;;;;17.42;3.70;;;;;;;11.45;77.52;100673.41;5009039;28;20056;-70
2022/11/06 08:45:28;;;;;;;13.30;3.17;;;;;;;11.43;77.31;100661.88;4988805;28;20080;-71
2022/11/06 08:47:59;;;;;;;12.75;3.53;;;;;;;11.47;77.55;100658.19;4995415;28;20053;-70
2022/11/06 08:50:27;;;;;;;10.75;3.28;;;;;;;11.65;76.70;100664.56;4972588;28;20402;-71
2022/11/06 08:52:59;;;;;;;11.35;3.20;;;;;;;11.41;77.96;100676.00;4994950;28;20807;-69
2022/11/06 08:55:27;;;;;;;13.32;3.40;;;;;;;11.39;78.63;100675.50;4980602;28;20852;-72
2022/11/06 08:57:55;;;;;;;9.50;3.20;;;;;;;11.35;79.11;100669.00;4978419;28;20069;-71
2022/11/06 09:00:22;;;;;;;12.90;3.20;;;;;;;11.39;79.78;100667.22;4998646;28;20433;-71
2022/11/06 09:02:50;;;;;;;10.40;3.42;;;;;;;11.10;81.19;100666.97;4963033;28;20054;-72
2022/11/06 09:05:17;;;;;;;15.95;3.22;;;;;;;11.03;81.98;100652.84;4987630;28;20066;-73
2022/11/06 09:07:44;;;;;;;10.77;3.03;;;;;;;11.10;82.39;100644.91;5002171;28;20072;-71
2022/11/06 09:10:12;;;;;;;11.82;3.80;;;;;;;11.64;82.24;100641.69;5004002;28;20070;-73
2022/11/06 09:12:40;;;;;;;11.05;3.80;;;;;;;11.53;80.35;100669.84;4997188;28;20049;-70
2022/11/06 09:15:09;;;;;;;11.55;3.47;;;;;;;11.27;81.34;100658.75;5006314;28;20085;-71
2022/11/06 09:17:46;;;;;;;15.07;3.72;;;;;;;11.31;81.31;100655.03;4978140;28;20057;-71
2022/11/06 09:20:15;;;;;;;11.23;3.90;;;;;;;11.37;81.67;100641.91;4992835;28;20501;-67
2022/11/06 09:22:42;;;;;;;16.63;3.83;;;;;;;11.32;81.84;100623.59;5008884;28;20042;-70
2022/11/06 09:25:10;;;;;;;15.48;3.83;;;;;;;11.28;81.60;100603.28;4996787;28;20054;-70
2022/11/06 09:27:42;;;;;;;15.75;3.92;;;;;;;11.25;81.58;100583.81;4994317;28;20069;-70
2022/11/06 09:30:11;;;;;;;10.77;3.80;;;;;;;11.17;83.01;100590.97;4986501;28;20062;-70
2022/11/06 09:32:44;;;;;;;17.90;4.00;;;;;;;11.13;83.36;100591.91;5000331;28;20038;-70
2022/11/06 09:35:12;;;;;;;10.38;3.60;;;;;;;10.91;85.56;100595.53;4994014;28;20041;-68
2022/11/06 09:37:39;;;;;;;15.23;4.45;;;;;;;11.08;85.31;100594.81;4981030;28;20042;-67
2022/11/06 09:40:31;;;;;;;16.45;4.90;;;;;;;11.29;84.97;100591.16;4995956;28;20050;-68
2022/11/06 09:43:16;;;;;;;13.15;3.95;;;;;;;11.25;84.25;100587.41;4993255;28;20054;-67
2022/11/06 09:46:16;;;;;;;17.65;4.10;;;;;;;11.11;84.85;100594.97;4999387;28;20054;-68
2022/11/06 09:48:47;;;;;;;12.77;3.75;;;;;;;11.14;85.24;100593.53;4997354;28;20077;-67
2022/11/06 09:51:32;;;;;;;15.50;3.88;;;;;;;11.36;85.38;100582.38;4966198;28;20426;-67
2022/11/06 09:54:20;;;;;;;13.45;3.78;;;;;;;11.14;86.48;100599.06;5008715;28;20047;-69
2022/11/06 09:56:55;;;;;;;12.10;4.45;;;;;;;11.07;85.95;100587.69;4994190;28;20093;-68
2022/11/06 09:59:23;;;;;;;11.35;3.95;;;;;;;11.15;86.31;100592.41;4992844;28;20038;-68
2022/11/06 10:01:54;;;;;;;9.15;3.65;;;;;;;11.25;85.44;100570.84;4980056;28;20054;-67
2022/11/06 10:05:05;;;;;;;14.68;4.40;;;;;;;11.41;84.97;100564.88;5005083;28;20061;-67
2022/11/06 10:07:35;;;;;;;10.75;3.90;;;;;;;11.43;85.89;100560.66;4916056;29;20063;-64
2022/11/06 10:10:06;;;;;;;11.38;4.20;;;;;;;11.11;85.28;100570.16;4901420;29;20088;-64
2022/11/06 10:12:39;;;;;;;10.02;4.65;;;;;;;11.16;85.98;100571.94;4957868;28;20054;-63
2022/11/06 10:15:21;;;;;;;14.13;4.55;;;;;;;11.10;86.68;100570.50;4994857;28;20046;-64
2022/11/06 10:18:00;;;;;;;13.93;4.38;;;;;;;11.09;87.07;100558.66;4983152;28;20050;-65
2022/11/06 10:20:38;;;;;;;12.43;4.22;;;;;;;11.08;87.40;100557.03;4977518;28;20050;-64
2022/11/06 10:23:17;;;;;;;12.05;4.72;;;;;;;11.47;86.77;100558.91;5009611;28;20047;-63
2022/11/06 10:25:50;;;;;;;14.90;5.07;;;;;;;11.34;86.58;100568.94;4995109;28;20403;-62
2022/11/06 10:28:45;;;;;;;16.20;4.65;;;;;;;11.35;86.36;100556.75;4997428;28;20051;-63
2022/11/06 10:31:35;;;;;;;17.50;8.02;;;;;;;11.47;85.80;100560.84;5004497;28;20062;-63
2022/11/06 10:34:08;;;;;;;11.85;5.05;;;;;;;11.28;86.41;100561.94;5004022;28;20038;-64
2022/11/06 10:36:42;;;;;;;14.50;5.30;;;;;;;11.38;87.03;100565.53;4994052;28;20545;-64
2022/11/06 10:39:26;;;;;;;15.55;4.70;;;;;;;11.38;86.93;100569.88;5009619;28;20063;-62
2022/11/06 10:42:04;;;;;;;12.90;4.80;;;;;;;11.39;86.77;100581.75;5002648;28;20625;-63
2022/11/06 10:44:36;;;;;;;13.80;4.80;;;;;;;11.38;87.43;100571.03;4977739;28;20054;-63
2022/11/06 10:47:18;;;;;;;11.70;5.07;;;;;;;11.73;86.56;100554.22;5007415;28;20054;-64
2022/11/06 10:50:07;;;;;;;17.77;5.22;;;;;;;11.53;86.20;100541.03;4997304;28;20520;-63
2022/11/06 10:52:54;;;;;;;17.92;7.00;;;;;;;11.38;87.11;100540.69;5008983;28;20417;-63
2022/11/06 10:55:30;;;;;;;17.65;6.68;;;;;;;11.29;86.44;100538.75;5007888;28;20050;-63
2022/11/06 10:58:21;;;;;;;12.88;5.68;;;;;;;11.38;86.79;100538.75;4994944;28;20077;-63
2022/11/06 11:00:51;;;;;;;15.55;5.78;;;;;;;11.57;86.09;100538.44;4989733;28;20053;-63
2022/11/06 11:03:25;;;;;;;16.92;6.00;;;;;;;11.60;85.53;100532.28;4990146;28;20066;-64
2022/11/06 11:05:54;;;;;;;17.17;5.82;;;;;;;11.29;87.92;100533.25;4993733;28;20042;-63
2022/11/06 11:08:45;;;;;;;11.38;5.47;;;;;;;11.38;87.47;100517.50;4975174;28;20050;-61
2022/11/06 11:11:13;;;;;;;14.18;5.03;;;;;;;11.45;87.82;100516.22;4986812;28;20054;-64
2022/11/06 11:13:45;;;;;;;15.65;5.25;;;;;;;11.24;88.23;100527.06;4996004;28;20053;-64
2022/11/06 11:16:27;;;;;;;14.43;5.55;;;;;;;11.39;87.78;100521.06;4991195;28;20051;-63
2022/11/06 11:19:14;;;;;;;15.38;5.20;;;;;;;11.34;88.57;100524.81;4993404;28;20042;-63
2022/11/06 11:21:59;;;;;;;15.93;5.50;;;;;;;11.57;87.95;100508.09;4995291;28;20209;-64
2022/11/06 11:24:26;;;;;;;16.33;5.57;;;;;;;11.42;88.15;100512.16;4989088;28;20231;-63
2022/11/06 11:27:01;;;;;;;12.38;5.00;;;;;;;11.52;88.01;100500.81;4981158;28;20061;-66
2022/11/06 11:29:44;;;;;;;20.02;6.05;;;;;;;11.70;87.43;100496.13;4973690;28;20051;-63
2022/11/06 11:32:13;;;;;;;15.27;5.50;;;;;;;11.58;87.03;100484.88;4990628;28;20058;-63
2022/11/06 11:34:52;;;;;;;15.20;5.05;;;;;;;11.58;87.24;100460.06;4994022;28;20054;-64
2022/11/06 11:37:27;;;;;;;16.10;4.95;;;;;;;11.46;87.69;100451.63;4996160;28;20049;-62
2022/11/06 11:39:54;;;;;;;13.80;5.05;;;;;;;11.44;88.01;100451.16;4995858;28;20073;-63
2022/11/06 11:42:25;;;;;;;13.63;4.65;;;;;;;11.50;87.22;100453.44;4993132;28;20050;-63
2022/11/06 11:45:12;;;;;;;12.02;4.63;;;;;;;11.55;87.45;100444.16;4993229;28;20057;-64
2022/11/06 11:47:45;;;;;;;12.98;4.35;;;;;;;11.30;87.98;100438.34;4987389;28;20065;-64
2022/11/06 11:50:17;;;;;;;11.60;4.53;;;;;;;11.55;87.72;100438.66;5003904;28;20061;-63